Time;durP1;ratioP1;P1;durP2;ratioP2;P2;SDS_P1;SDS_P2;PMS_P1;PMS_P2;Temp;Humidity;BMP_temperature;BMP_pressure;BME280_temperature;BME280_humidity;BME280_pressure;Samples;Min_cycle;Max_cycle;Signal;HPM_P1;HPM_P2
2022/06/14 00:01:40;;;;;;;8.70;3.70;;;;;;;14.39;100.00;100292.53;6213796;23;20083;-82
2022/06/14 00:04:05;;;;;;;5.45;3.33;;;;;;;14.41;100.00;100290.06;6211986;23;20094;-82
2022/06/14 00:06:33;;;;;;;8.43;3.45;;;;;;;14.42;100.00;100293.63;6212817;23;20019;-82
2022/06/14 00:08:59;;;;;;;6.65;3.42;;;;;;;14.43;100.00;100295.19;6213165;23;20020;-82
2022/06/14 00:11:30;;;;;;;4.22;3.22;;;;;;;14.43;100.00;100292.41;6212315;23;20020;-82
2022/06/14 00:13:57;;;;;;;6.95;3.30;;;;;;;14.41;100.00;100295.63;6212780;23;20012;-82
2022/06/14 00:16:24;;;;;;;5.13;3.22;;;;;;;14.37;100.00;100294.22;6212995;23;20016;-82
2022/06/14 00:18:50;;;;;;;6.35;3.05;;;;;;;14.34;100.00;100289.53;6186248;23;20013;-83
2022/06/14 00:21:16;;;;;;;6.22;3.58;;;;;;;14.31;100.00;100288.44;6212518;23;20620;-82
2022/06/14 00:23:42;;;;;;;7.18;3.60;;;;;;;14.30;100.00;100284.09;6161634;23;20019;-82
2022/06/14 00:26:11;;;;;;;5.93;3.38;;;;;;;14.31;100.00;100290.44;6185968;23;20004;-82
2022/06/14 00:28:39;;;;;;;5.82;3.33;;;;;;;14.27;100.00;100292.59;6187567;23;20079;-82
2022/06/14 00:31:14;;;;;;;7.07;3.47;;;;;;;14.22;100.00;100282.78;6211811;23;20027;-82
2022/06/14 00:33:40;;;;;;;6.70;3.65;;;;;;;14.18;100.00;100293.31;6186619;23;20095;-82
2022/06/14 00:36:17;;;;;;;6.97;3.60;;;;;;;14.22;100.00;100304.34;6212896;23;20035;-82
2022/06/14 00:38:43;;;;;;;5.07;3.38;;;;;;;14.17;100.00;100302.91;6213915;23;20312;-83
2022/06/14 00:41:24;;;;;;;5.03;3.25;;;;;;;14.18;100.00;100309.25;6213556;23;20008;-82
2022/06/14 00:43:50;;;;;;;7.90;3.67;;;;;;;14.17;100.00;100304.91;6186109;23;20009;-83
2022/06/14 00:46:22;;;;;;;6.47;3.38;;;;;;;14.10;100.00;100308.75;6212834;23;20008;-83
2022/06/14 00:48:54;;;;;;;7.28;3.25;;;;;;;14.07;100.00;100311.69;6212803;23;20004;-82
2022/06/14 00:51:23;;;;;;;9.15;3.50;;;;;;;14.03;100.00;100312.56;6186731;23;20543;-83
2022/06/14 00:53:52;;;;;;;6.40;3.10;;;;;;;13.99;100.00;100309.13;6185965;23;20011;-82
2022/06/14 00:56:39;;;;;;;4.78;3.13;;;;;;;14.04;100.00;100321.72;6213385;23;20366;-83
2022/06/14 00:59:10;;;;;;;5.70;3.63;;;;;;;14.02;100.00;100330.56;6212328;23;20332;-83
2022/06/14 01:01:45;;;;;;;6.85;3.33;;;;;;;14.03;100.00;100325.75;6174805;22;20107;-83
2022/06/14 01:04:18;;;;;;;6.97;3.40;;;;;;;14.03;100.00;100326.50;6240134;22;20011;-83
2022/06/14 01:07:10;;;;;;;8.07;3.33;;;;;;;13.98;100.00;100331.91;6243015;23;20333;-84
2022/06/14 01:09:44;;;;;;;5.93;3.25;;;;;;;13.94;100.00;100329.25;6215944;23;20465;-83
2022/06/14 01:12:11;;;;;;;4.38;3.40;;;;;;;13.90;100.00;100328.59;6242819;23;20023;-82
2022/06/14 01:15:09;;;;;;;5.30;3.10;;;;;;;13.90;100.00;100328.59;6243695;23;20083;-82
2022/06/14 01:17:43;;;;;;;7.32;3.50;;;;;;;13.90;100.00;100328.59;6214076;23;20040;-82
2022/06/14 01:20:12;;;;;;;5.00;3.15;;;;;;;13.89;100.00;100324.25;6217417;23;20012;-82
2022/06/14 01:22:38;;;;;;;5.30;3.13;;;;;;;13.82;100.00;100327.28;6241862;23;20083;-82
2022/06/14 01:25:04;;;;;;;5.60;3.03;;;;;;;13.78;100.00;100326.63;6215147;23;20087;-82
2022/06/14 01:27:32;;;;;;;6.65;3.17;;;;;;;13.82;100.00;100327.28;6215779;23;20079;-82
2022/06/14 01:30:07;;;;;;;5.13;3.00;;;;;;;13.81;100.00;100336.09;6215888;23;20389;-82
2022/06/14 01:32:40;;;;;;;7.53;3.22;;;;;;;13.76;100.00;100317.94;6215723;23;20062;-83
2022/06/14 01:35:07;;;;;;;;;;;;;;;13.75;100.00;100338.66;6242561;23;20016;-82
2022/06/14 01:37:32;;;;;;;6.78;3.13;;;;;;;13.68;100.00;100327.00;6215644;23;19915;-82
2022/06/14 01:39:58;;;;;;;7.68;3.35;;;;;;;13.71;100.00;100338.00;6216001;23;20521;-82
2022/06/14 01:42:33;;;;;;;4.95;3.22;;;;;;;13.62;100.00;100331.59;6216846;23;20075;-82
2022/06/14 01:45:14;;;;;;;6.38;3.40;;;;;;;13.69;100.00;100334.91;6215181;23;20013;-82
2022/06/14 01:48:01;;;;;;;5.60;3.55;;;;;;;13.67;100.00;100342.94;6190062;23;20512;-82
2022/06/14 01:53:55;;;;;;;6.50;3.20;;;;;;;13.59;100.00;100347.19;6242807;23;20016;-82
2022/06/14 01:56:35;;;;;;;5.97;3.40;;;;;;;13.59;100.00;100344.41;6241304;23;20023;-82
2022/06/14 01:59:12;;;;;;;6.32;3.40;;;;;;;13.57;100.00;100346.88;6190230;23;20008;-82
2022/06/14 02:02:00;;;;;;;4.93;3.30;;;;;;;13.55;100.00;100344.53;6208287;23;20044;-82
2022/06/14 02:04:54;;;;;;;6.63;3.40;;;;;;;13.56;100.00;100356.47;6242286;23;20609;-82
2022/06/14 02:07:53;;;;;;;6.90;3.33;;;;;;;13.51;100.00;100351.44;6237208;22;20036;-82
2022/06/14 02:10:20;;;;;;;6.45;3.30;;;;;;;13.49;100.00;100359.50;6206659;23;20106;-82
2022/06/14 02:12:57;;;;;;;5.43;3.17;;;;;;;13.50;100.00;100347.13;6193422;23;20012;-82
2022/06/14 02:15:32;;;;;;;6.13;3.20;;;;;;;13.48;100.00;100361.50;6217489;23;20350;-82
2022/06/14 02:18:08;;;;;;;3.88;2.83;;;;;;;13.50;100.00;100366.63;6217847;23;20012;-82
2022/06/14 02:20:39;;;;;;;5.95;3.25;;;;;;;13.47;100.00;100373.88;6243908;23;20020;-82
2022/06/14 02:23:07;;;;;;;5.10;3.40;;;;;;;13.43;100.00;100372.41;6217016;23;20079;-82
2022/06/14 02:25:54;;;;;;;5.85;3.00;;;;;;;13.42;100.00;100368.09;6217624;23;20106;-82
2022/06/14 02:28:25;;;;;;;4.35;2.90;;;;;;;13.44;100.00;100368.41;6217113;23;20372;-82
2022/06/14 02:31:01;;;;;;;5.22;3.08;;;;;;;13.44;100.00;100369.19;6217311;23;20016;-83
2022/06/14 02:33:46;;;;;;;4.97;3.33;;;;;;;13.46;100.00;100365.97;6217541;23;20094;-82
2022/06/14 02:36:16;;;;;;;4.28;2.95;;;;;;;13.49;100.00;100376.22;6217362;23;20354;-82
2022/06/14 02:38:52;;;;;;;5.07;3.30;;;;;;;13.54;100.00;100373.66;6243950;23;20020;-82
2022/06/14 02:41:27;;;;;;;6.07;3.38;;;;;;;13.54;100.00;100375.66;6193759;23;20016;-83
2022/06/14 02:44:08;;;;;;;5.50;3.08;;;;;;;13.54;100.00;100389.59;6245084;23;20012;-82
2022/06/14 02:46:48;;;;;;;4.97;3.10;;;;;;;13.51;100.00;100394.03;6218244;23;20012;-82
2022/06/14 02:49:22;;;;;;;5.43;3.20;;;;;;;13.49;100.00;100395.72;6216942;23;20039;-82
2022/06/14 02:51:52;;;;;;;5.05;3.17;;;;;;;13.40;100.00;100381.69;6218204;23;20374;-82
2022/06/14 02:54:38;;;;;;;5.43;2.90;;;;;;;13.41;100.00;100392.41;6245616;23;20016;-82
2022/06/14 02:57:18;;;;;;;5.60;3.00;;;;;;;13.41;100.00;100397.19;6192391;23;20042;-80
2022/06/14 02:59:48;;;;;;;5.72;3.33;;;;;;;13.45;100.00;100393.06;6217441;23;20012;-79
2022/06/14 03:02:43;;;;;;;5.32;3.10;;;;;;;13.46;100.00;100399.41;6212345;23;20043;-79
2022/06/14 03:05:19;;;;;;;5.32;3.30;;;;;;;13.46;100.00;100391.06;6149364;23;20508;-81
2022/06/14 03:07:56;;;;;;;4.97;3.10;;;;;;;13.48;100.00;100385.78;6162171;23;20020;-79
2022/06/14 03:10:24;;;;;;;6.25;3.42;;;;;;;13.54;100.00;100395.16;6187409;23;20023;-79
2022/06/14 03:13:08;;;;;;;6.00;3.30;;;;;;;13.55;100.00;100391.91;6161723;23;20009;-78
2022/06/14 03:15:45;;;;;;;4.72;3.22;;;;;;;13.46;100.00;100394.63;6187700;23;20016;-79
2022/06/14 03:18:51;;;;;;;5.85;3.00;;;;;;;13.38;100.00;100398.09;6186467;23;20051;-78
2022/06/14 03:21:37;;;;;;;5.30;3.20;;;;;;;13.37;100.00;100402.88;6207542;23;20044;-79
2022/06/14 03:24:11;;;;;;;5.32;3.17;;;;;;;13.42;100.00;100407.13;6185536;23;20008;-78
2022/06/14 03:26:56;;;;;;;6.93;3.75;;;;;;;13.33;100.00;100413.34;6186723;23;20012;-79
2022/06/14 03:29:33;;;;;;;5.70;3.38;;;;;;;13.31;100.00;100410.22;6213306;23;20425;-80
2022/06/14 03:32:04;;;;;;;5.30;3.40;;;;;;;13.31;100.00;100420.59;6186639;23;20073;-79
2022/06/14 03:34:38;;;;;;;7.70;3.60;;;;;;;13.26;100.00;100423.94;6212943;23;20099;-79
2022/06/14 03:37:04;;;;;;;6.32;3.50;;;;;;;13.12;100.00;100419.59;6186310;23;20486;-79
2022/06/14 03:39:34;;;;;;;7.40;3.75;;;;;;;13.08;100.00;100413.31;6186841;23;20005;-79
2022/06/14 03:42:03;;;;;;;5.72;3.33;;;;;;;13.07;100.00;100423.69;6182179;23;20051;-79
2022/06/14 03:44:29;;;;;;;4.43;3.47;;;;;;;13.11;100.00;100420.03;6186441;23;20009;-78
2022/06/14 03:47:10;;;;;;;6.32;3.63;;;;;;;13.22;100.00;100428.84;6186985;23;20079;-78
2022/06/14 03:49:40;;;;;;;5.45;3.00;;;;;;;13.34;100.00;100433.66;6213176;23;20009;-79
2022/06/14 03:52:18;;;;;;;6.05;3.25;;;;;;;13.43;100.00;100426.16;6186422;23;20047;-79
2022/06/14 03:54:52;;;;;;;4.95;3.50;;;;;;;13.53;100.00;100429.84;6212759;23;20017;-82
2022/06/14 03:57:42;;;;;;;5.90;3.25;;;;;;;13.62;98.31;100435.50;6186673;23;20020;-83
2022/06/14 04:00:25;;;;;;;9.90;3.30;;;;;;;13.71;98.15;100429.25;6212975;23;20017;-83
2022/06/14 04:03:09;;;;;;;4.30;3.08;;;;;;;13.77;98.40;100439.38;6212716;23;20410;-82
2022/06/14 04:05:59;;;;;;;5.53;2.95;;;;;;;13.85;97.30;100437.13;6213570;23;20520;-83
2022/06/14 04:08:46;;;;;;;5.65;3.10;;;;;;;13.88;97.33;100434.22;6212602;23;20095;-82
2022/06/14 04:11:26;;;;;;;5.35;3.10;;;;;;;13.91;96.44;100433.31;6213230;23;20020;-79
2022/06/14 04:14:11;;;;;;;5.85;3.40;;;;;;;14.01;97.05;100432.19;6186595;23;20016;-79
2022/06/14 04:16:51;;;;;;;5.57;3.25;;;;;;;14.06;98.15;100432.84;6212598;23;20013;-78
2022/06/14 04:19:26;;;;;;;6.10;3.05;;;;;;;14.11;96.19;100438.63;6212638;23;20012;-79
2022/06/14 04:21:57;;;;;;;7.50;3.33;;;;;;;14.16;96.91;100440.03;6213224;23;20015;-79
2022/06/14 04:24:25;;;;;;;3.55;3.00;;;;;;;14.25;97.20;100443.69;6186551;23;20055;-79
2022/06/14 04:27:17;;;;;;;4.68;3.22;;;;;;;14.32;97.54;100445.44;6213005;23;20497;-79
2022/06/14 04:30:06;;;;;;;6.47;3.03;;;;;;;14.42;97.60;100447.13;6205021;23;20021;-83
2022/06/14 04:32:44;;;;;;;6.32;3.28;;;;;;;14.42;95.83;100435.97;6213182;23;20090;-82
2022/06/14 04:35:20;;;;;;;5.35;3.33;;;;;;;14.53;96.67;100441.16;6212229;23;20427;-83
2022/06/14 04:37:51;;;;;;;5.05;2.70;;;;;;;14.63;93.96;100451.16;6185785;23;20485;-82
2022/06/14 04:40:22;;;;;;;4.93;2.95;;;;;;;14.70;94.04;100446.09;6211486;23;20052;-82
2022/06/14 04:42:53;;;;;;;5.22;3.05;;;;;;;14.75;93.58;100445.50;6185544;23;20015;-83
2022/06/14 04:45:23;;;;;;;6.25;3.38;;;;;;;14.82;94.19;100450.81;6161289;23;20472;-83
2022/06/14 04:48:01;;;;;;;7.20;3.30;;;;;;;14.85;92.86;100452.69;6179999;23;20067;-83
2022/06/14 04:50:31;;;;;;;7.00;4.50;;;;;;;14.87;93.01;100458.63;6183135;23;20028;-83
2022/06/14 04:53:03;;;;;;;7.10;2.88;;;;;;;14.88;91.83;100457.38;6184399;23;20021;-82
2022/06/14 04:55:42;;;;;;;6.85;3.05;;;;;;;14.86;91.54;100459.06;6184350;23;20036;-82
2022/06/14 04:58:12;;;;;;;7.53;3.35;;;;;;;14.89;91.35;100458.94;6211427;23;20035;-83
2022/06/14 05:00:42;;;;;;;4.85;3.20;;;;;;;14.93;90.57;100475.56;6209791;23;20019;-82
2022/06/14 05:03:30;;;;;;;5.78;3.35;;;;;;;14.97;91.03;100459.44;6195216;23;20013;-83
2022/06/14 05:05:59;;;;;;;7.07;3.50;;;;;;;15.04;91.05;100458.41;6208408;23;20012;-83
2022/06/14 05:08:27;;;;;;;6.22;3.05;;;;;;;15.12;90.28;100451.31;6210320;23;20011;-83
2022/06/14 05:10:56;;;;;;;7.30;3.17;;;;;;;15.29;89.68;100464.56;6211031;23;20016;-83
2022/06/14 05:13:27;;;;;;;4.25;3.10;;;;;;;15.46;89.88;100467.91;6211052;23;20020;-91
2022/06/14 05:16:01;;;;;;;5.47;3.10;;;;;;;15.58;88.55;100469.06;6210920;23;20036;-82
2022/06/14 05:18:34;;;;;;;5.68;2.80;;;;;;;15.73;87.92;100472.84;6212268;23;20374;-82
2022/06/14 05:21:20;;;;;;;5.60;3.05;;;;;;;15.83;85.81;100472.41;6212140;23;20521;-83
2022/06/14 05:23:49;;;;;;;4.15;2.97;;;;;;;15.95;84.28;100469.94;6212495;23;20087;-83
2022/06/14 05:26:23;;;;;;;4.88;2.78;;;;;;;16.03;84.74;100476.78;6210889;23;20013;-82
2022/06/14 05:29:11;;;;;;;6.03;2.80;;;;;;;16.13;82.79;100469.97;6211011;23;20091;-82
2022/06/14 05:31:48;;;;;;;5.28;2.80;;;;;;;16.26;83.42;100481.78;6211489;23;20012;-82
2022/06/14 05:34:21;;;;;;;4.72;2.80;;;;;;;16.38;83.66;100483.66;6211280;23;20031;-82
2022/06/14 05:36:59;;;;;;;5.65;3.13;;;;;;;16.52;82.83;100477.47;6211272;23;20023;-83
2022/06/14 05:39:38;;;;;;;5.70;2.85;;;;;;;16.70;80.51;100485.13;6210352;23;20019;-83
2022/06/14 05:42:12;;;;;;;6.70;4.00;;;;;;;16.85;79.87;100469.22;6210725;23;20012;-83
2022/06/14 05:44:43;;;;;;;5.35;2.97;;;;;;;17.02;78.41;100483.66;6210129;23;20040;-82
2022/06/14 05:47:14;;;;;;;8.43;3.50;;;;;;;17.20;77.51;100478.00;6210551;23;20044;-83
2022/06/14 05:49:53;;;;;;;6.40;3.30;;;;;;;17.44;75.00;100494.88;6207877;23;20347;-83
2022/06/14 05:52:32;;;;;;;5.43;2.80;;;;;;;17.64;76.21;100495.94;6208783;23;20013;-84
2022/06/14 05:55:08;;;;;;;5.65;3.00;;;;;;;17.89;75.03;100480.69;6208508;23;20013;-84
2022/06/14 05:57:42;;;;;;;5.43;2.80;;;;;;;18.10;71.14;100481.66;6209009;23;20019;-84
2022/06/14 06:00:12;;;;;;;6.25;2.70;;;;;;;18.26;71.74;100484.03;6209160;23;20012;-83
2022/06/14 06:02:55;;;;;;;5.00;2.92;;;;;;;18.50;71.88;100487.59;6211844;23;20017;-84
2022/06/14 06:05:41;;;;;;;;;;;;;;;18.67;70.45;100493.56;6211538;23;20323;-84
2022/06/14 06:08:22;;;;;;;5.20;2.97;;;;;;;18.82;68.87;100493.56;6184697;23;19963;-84
2022/06/14 06:10:51;;;;;;;5.78;2.80;;;;;;;18.91;68.60;100483.03;6211494;23;20013;-84
2022/06/14 06:13:29;;;;;;;3.40;2.50;;;;;;;19.05;69.94;100493.50;6210672;23;20035;-84
2022/06/14 06:15:58;;;;;;;6.72;2.95;;;;;;;19.28;70.21;100489.03;6186593;23;20463;-84
2022/06/14 06:18:32;;;;;;;6.53;3.08;;;;;;;19.52;66.55;100498.16;6212969;23;20016;-84
2022/06/14 06:21:17;;;;;;;6.75;2.90;;;;;;;19.62;66.00;100495.22;6186519;23;20013;-84
2022/06/14 06:23:51;;;;;;;6.47;2.67;;;;;;;19.56;65.72;100492.31;6212713;23;20345;-80
2022/06/14 06:26:19;;;;;;;9.38;3.00;;;;;;;19.46;64.78;100488.06;6186280;23;20079;-80
2022/06/14 06:28:54;;;;;;;5.18;2.90;;;;;;;19.60;66.38;100498.53;6186241;23;20009;-80
2022/06/14 06:31:23;;;;;;;5.95;2.97;;;;;;;19.78;64.52;100503.13;6186331;23;20879;-80
2022/06/14 06:33:51;;;;;;;4.00;2.70;;;;;;;20.00;63.54;100497.84;6185936;23;20020;-80
2022/06/14 06:37:14;;;;;;;5.97;3.33;;;;;;;20.27;62.72;100503.06;6185699;23;20434;-80
2022/06/14 06:39:55;;;;;;;5.50;3.10;;;;;;;20.38;63.57;100500.41;6062370;23;20023;-80
2022/06/14 06:42:44;;;;;;;7.40;3.00;;;;;;;20.57;63.38;100497.31;6061950;23;20047;-80
2022/06/14 06:45:43;;;;;;;6.57;3.08;;;;;;;20.70;62.75;100509.00;6191248;23;20091;-85
2022/06/14 06:48:23;;;;;;;7.97;3.00;;;;;;;20.93;61.25;100497.44;6106181;23;20020;-85
2022/06/14 06:50:53;;;;;;;7.30;2.80;;;;;;;21.09;60.42;100512.97;6213075;23;20115;-85
2022/06/14 06:53:20;;;;;;;6.63;3.03;;;;;;;21.30;59.09;100522.19;6187614;23;20016;-85
2022/06/14 06:56:12;;;;;;;5.40;2.88;;;;;;;21.26;58.78;100522.41;6163484;23;20038;-85
2022/06/14 06:59:15;;;;;;;7.00;3.30;;;;;;;21.25;58.09;100520.06;6214143;23;20008;-84
2022/06/14 07:01:41;;;;;;;5.65;2.90;;;;;;;21.25;59.63;100518.03;6187900;23;20342;-85
2022/06/14 07:05:03;;;;;;;5.78;3.15;;;;;;;21.37;59.21;100516.84;6162618;23;20023;-80
2022/06/14 07:07:34;;;;;;;4.57;2.90;;;;;;;21.44;58.29;100514.84;6214003;23;20024;-80
2022/06/14 07:10:04;;;;;;;7.60;3.08;;;;;;;21.62;58.92;100514.47;6170943;23;20450;-80
2022/06/14 07:12:39;;;;;;;5.55;2.90;;;;;;;21.73;58.23;100512.50;6187756;23;20048;-81
2022/06/14 07:15:35;;;;;;;5.32;2.75;;;;;;;21.87;57.19;100519.28;6187536;23;20017;-80
2022/06/14 07:18:06;;;;;;;8.60;3.45;;;;;;;22.03;55.37;100526.34;6172590;23;20092;-80
2022/06/14 07:20:37;;;;;;;6.97;2.92;;;;;;;21.88;53.14;100526.47;6187564;23;20012;-80
2022/06/14 07:23:14;;;;;;;8.60;2.80;;;;;;;21.92;52.28;100529.84;6214066;23;20439;-79
2022/06/14 07:25:50;;;;;;;5.38;2.92;;;;;;;21.95;51.79;100528.09;6187527;23;20136;-80
2022/06/14 07:28:21;;;;;;;6.53;2.97;;;;;;;21.94;52.57;100516.03;6213562;23;20084;-80
2022/06/14 07:30:59;;;;;;;5.68;2.70;;;;;;;21.97;52.57;100512.19;6187665;23;20458;-80
2022/06/14 07:33:26;;;;;;;7.30;2.88;;;;;;;22.24;52.07;100520.03;6213625;23;20473;-81
2022/06/14 07:35:55;;;;;;;5.40;2.80;;;;;;;22.52;51.71;100506.03;6214412;23;20076;-80
2022/06/14 07:38:33;;;;;;;6.82;3.15;;;;;;;22.45;50.65;100526.28;6213679;23;20012;-81
2022/06/14 07:41:30;;;;;;;6.35;3.10;;;;;;;22.32;51.97;100521.09;6187539;23;20079;-80
2022/06/14 07:44:04;;;;;;;8.63;3.33;;;;;;;22.43;51.13;100525.25;6187410;23;20013;-81
2022/06/14 07:46:58;;;;;;;8.05;2.88;;;;;;;22.62;51.42;100523.53;6214248;23;20399;-80
2022/06/14 07:49:29;;;;;;;7.25;2.90;;;;;;;22.80;49.73;100525.19;6148896;23;20103;-80
2022/06/14 07:51:59;;;;;;;7.35;3.00;;;;;;;22.87;49.29;100514.13;6214029;23;20013;-80
2022/06/14 07:54:29;;;;;;;5.57;3.30;;;;;;;23.01;51.22;100507.47;6213731;23;20087;-80
2022/06/14 07:56:54;;;;;;;4.55;2.55;;;;;;;23.27;49.22;100514.97;6187400;23;20474;-80
2022/06/14 07:59:25;;;;;;;5.47;2.80;;;;;;;23.54;49.61;100508.53;6213613;23;20040;-80
2022/06/14 08:01:56;;;;;;;5.55;2.85;;;;;;;23.40;45.96;100509.56;6187603;23;20013;-83
2022/06/14 08:04:39;;;;;;;6.53;2.85;;;;;;;23.42;46.99;100518.31;6186906;23;20017;-84
2022/06/14 08:07:12;;;;;;;5.78;2.95;;;;;;;23.47;47.20;100514.72;6213893;23;20013;-84
2022/06/14 08:10:04;;;;;;;7.90;2.97;;;;;;;23.67;48.71;100511.63;6187366;23;20012;-84
2022/06/14 08:12:38;;;;;;;6.70;3.00;;;;;;;23.91;46.83;100513.91;6186584;23;20020;-84
2022/06/14 08:15:14;;;;;;;5.82;2.90;;;;;;;24.01;46.97;100513.13;6213860;23;20016;-84
2022/06/14 08:18:21;;;;;;;6.43;3.28;;;;;;;24.34;45.03;100517.19;6187471;23;20015;-84
2022/06/14 08:21:04;;;;;;;7.97;3.13;;;;;;;24.33;45.19;100504.28;6068143;23;20026;-84
2022/06/14 08:23:46;;;;;;;6.47;3.03;;;;;;;24.53;44.57;100506.78;6091433;23;20039;-84
2022/06/14 08:26:18;;;;;;;7.75;2.88;;;;;;;24.60;43.70;100509.06;6149823;23;20372;-85
2022/06/14 08:29:05;;;;;;;7.38;2.70;;;;;;;24.68;43.27;100501.56;6185602;23;20024;-83
2022/06/14 08:31:37;;;;;;;9.05;3.33;;;;;;;24.75;44.28;100505.91;6212958;23;20464;-83
2022/06/14 08:34:16;;;;;;;5.47;2.80;;;;;;;24.93;42.25;100506.09;6186993;23;20016;-83
2022/06/14 08:37:09;;;;;;;6.28;3.10;;;;;;;25.08;43.04;100502.88;6187088;23;20008;-84
2022/06/14 08:39:37;;;;;;;7.13;3.00;;;;;;;25.12;42.11;100496.91;6213656;23;20107;-83
2022/06/14 08:42:10;;;;;;;4.63;2.75;;;;;;;25.33;41.48;100492.38;6187022;23;20012;-83
2022/06/14 08:44:42;;;;;;;7.82;3.00;;;;;;;25.34;40.39;100493.91;6186729;23;20422;-84
2022/06/14 08:47:17;;;;;;;5.72;2.83;;;;;;;25.32;41.23;100493.66;6184367;23;20020;-83
2022/06/14 08:49:59;;;;;;;5.05;2.60;;;;;;;25.55;40.47;100497.13;6211115;23;20437;-84
2022/06/14 08:52:30;;;;;;;6.57;2.90;;;;;;;25.59;38.92;100497.59;6184539;23;20020;-84
2022/06/14 08:55:17;;;;;;;6.18;2.50;;;;;;;25.76;39.34;100487.59;6211728;23;20067;-84
2022/06/14 08:58:27;;;;;;;4.20;2.60;;;;;;;25.70;37.08;100500.34;6185291;23;20031;-84
2022/06/14 09:01:11;;;;;;;4.97;2.50;;;;;;;25.50;37.24;100493.00;6212712;23;20048;-84
2022/06/14 09:04:09;;;;;;;3.33;2.35;;;;;;;25.63;36.85;100498.09;6189449;23;20083;-84
2022/06/14 09:06:57;;;;;;;5.38;2.58;;;;;;;25.63;36.11;100495.25;6213157;23;20012;-84
2022/06/14 09:09:26;;;;;;;5.10;2.60;;;;;;;25.29;35.33;100501.19;6186536;23;20025;-83
2022/06/14 09:11:59;;;;;;;5.53;2.22;;;;;;;25.33;35.25;100486.69;6213235;23;20446;-83
2022/06/14 09:14:24;;;;;;;;;;;;;;;25.52;33.34;100499.72;6213141;23;20012;-84
2022/06/14 09:16:59;;;;;;;4.47;2.50;;;;;;;25.55;34.23;100492.22;6213249;23;19908;-83
2022/06/14 09:19:28;;;;;;;4.03;2.47;;;;;;;25.59;32.27;100495.53;6212621;23;20442;-84
2022/06/14 09:22:12;;;;;;;4.22;2.40;;;;;;;25.70;33.98;100503.19;6213253;23;20036;-84
2022/06/14 09:24:54;;;;;;;3.83;2.40;;;;;;;25.69;33.77;100491.03;6213024;23;20016;-84
2022/06/14 09:27:47;;;;;;;5.85;2.75;;;;;;;25.78;34.98;100495.59;6186452;23;20013;-84
2022/06/14 09:30:31;;;;;;;5.30;2.42;;;;;;;25.92;33.89;100494.44;6212770;23;20020;-83
2022/06/14 09:33:30;;;;;;;5.32;2.70;;;;;;;25.88;33.83;100491.88;6213133;23;20091;-84
2022/06/14 09:36:10;;;;;;;5.50;2.60;;;;;;;25.91;33.64;100496.50;6213357;23;20013;-84
2022/06/14 09:38:58;;;;;;;4.28;2.42;;;;;;;25.86;32.24;100482.34;6213184;23;20012;-84
2022/06/14 09:41:52;;;;;;;5.03;2.50;;;;;;;26.07;33.82;100479.78;6186407;23;20020;-84
2022/06/14 09:44:20;;;;;;;4.65;2.67;;;;;;;26.27;32.87;100488.63;6212454;23;20464;-84
2022/06/14 09:47:14;;;;;;;5.90;2.75;;;;;;;26.46;32.75;100485.81;6212800;23;20071;-84
2022/06/14 09:49:45;;;;;;;;;;;;;;;26.72;33.28;100477.44;6213413;23;20079;-84
2022/06/14 09:52:50;;;;;;;5.43;2.50;;;;;;;26.63;31.71;100486.34;6212865;23;19918;-85
2022/06/14 09:55:47;;;;;;;6.05;2.38;;;;;;;26.47;31.03;100481.66;6161482;23;20025;-84
2022/06/14 09:58:28;;;;;;;3.05;2.35;;;;;;;26.69;30.64;100486.28;6212189;23;20024;-84
2022/06/14 10:01:20;;;;;;;6.47;2.95;;;;;;;26.90;30.96;100478.75;6186512;23;20386;-85
2022/06/14 10:04:01;;;;;;;4.43;2.47;;;;;;;26.72;29.60;100476.66;6201223;23;20043;-84
2022/06/14 10:06:49;;;;;;;4.90;2.42;;;;;;;26.38;31.34;100470.66;6211125;23;20051;-84
2022/06/14 10:09:52;;;;;;;6.35;2.38;;;;;;;26.55;30.75;100465.50;6210881;23;20092;-84
2022/06/14 10:12:26;;;;;;;3.67;2.33;;;;;;;26.62;32.45;100462.03;6212456;23;20017;-85
2022/06/14 10:15:09;;;;;;;4.13;2.40;;;;;;;26.65;30.97;100463.81;6212611;23;20009;-81
2022/06/14 10:17:45;;;;;;;4.15;2.53;;;;;;;26.67;31.13;100457.59;6211447;23;20023;-81
2022/06/14 10:20:33;;;;;;;6.80;2.55;;;;;;;26.75;31.86;100462.13;6210794;23;20023;-80
2022/06/14 10:23:17;;;;;;;4.35;2.60;;;;;;;26.95;32.75;100452.28;6212162;23;20315;-81
2022/06/14 10:29:39;;;;;;;4.95;2.80;;;;;;;27.40;29.91;100452.31;6212572;23;20536;-81
2022/06/14 10:32:07;;;;;;;5.72;2.53;;;;;;;27.22;29.60;100444.59;6188136;23;20161;-81
2022/06/14 10:34:48;;;;;;;6.75;2.90;;;;;;;27.06;29.49;100445.63;6214230;23;20504;-81
2022/06/14 10:37:22;;;;;;;3.78;2.58;;;;;;;27.16;28.54;100446.78;6212945;23;20024;-81
2022/06/14 10:40:08;;;;;;;4.38;2.53;;;;;;;27.27;30.44;100438.81;6214625;23;20012;-81
2022/06/14 10:43:05;;;;;;;6.35;2.92;;;;;;;27.48;27.80;100450.38;6213684;23;20028;-81
2022/06/14 10:45:43;;;;;;;4.65;2.60;;;;;;;27.44;29.28;100449.91;6213828;23;20031;-81
2022/06/14 10:48:24;;;;;;;4.88;2.60;;;;;;;27.55;27.46;100454.66;6213312;23;20013;-81
2022/06/14 10:51:10;;;;;;;4.40;2.55;;;;;;;27.66;27.66;100451.63;6214241;23;20012;-81
2022/06/14 10:53:55;;;;;;;4.18;2.60;;;;;;;27.61;27.69;100441.88;6188056;23;20134;-81
2022/06/14 10:56:24;;;;;;;5.25;2.95;;;;;;;27.47;27.45;100453.78;6213587;23;20008;-81
2022/06/14 10:58:58;;;;;;;4.00;2.40;;;;;;;27.60;29.01;100434.63;6213865;23;20012;-79
2022/06/14 11:01:42;;;;;;;6.28;2.90;;;;;;;27.35;27.64;100436.06;6214102;23;20354;-79
2022/06/14 11:04:15;;;;;;;5.65;2.80;;;;;;;27.25;29.66;100438.59;6213952;23;20100;-79
2022/06/14 11:06:46;;;;;;;6.15;2.70;;;;;;;27.33;30.79;100436.66;6188017;23;20036;-79
2022/06/14 11:09:46;;;;;;;4.97;2.63;;;;;;;27.28;28.64;100442.44;6213894;23;20013;-79
2022/06/14 11:12:42;;;;;;;4.15;2.70;;;;;;;27.17;29.54;100431.22;6213827;23;20435;-79
2022/06/14 11:15:30;;;;;;;4.20;2.70;;;;;;;27.40;31.00;100438.06;6214022;23;20012;-79
2022/06/14 11:18:22;;;;;;;4.55;2.72;;;;;;;27.60;30.09;100437.47;6187585;23;20040;-80
2022/06/14 11:21:10;;;;;;;5.97;2.60;;;;;;;27.77;28.65;100426.53;6214163;23;20013;-80
2022/06/14 11:24:03;;;;;;;5.63;2.65;;;;;;;27.88;28.79;100441.88;6212999;23;20435;-80
2022/06/14 11:26:44;;;;;;;4.10;2.40;;;;;;;27.95;28.16;100435.50;6187616;23;20019;-80
2022/06/14 11:29:27;;;;;;;5.70;2.97;;;;;;;28.11;29.16;100431.56;6213814;23;20350;-80
2022/06/14 11:31:54;;;;;;;7.55;2.88;;;;;;;28.29;30.64;100439.25;6187378;23;20020;-80
2022/06/14 11:34:38;;;;;;;5.55;2.53;;;;;;;28.24;29.75;100431.56;6187051;23;20008;-80
2022/06/14 11:37:28;;;;;;;5.07;2.80;;;;;;;28.16;27.26;100431.47;6213179;23;20016;-80
2022/06/14 11:39:53;;;;;;;4.72;3.00;;;;;;;28.31;29.99;100428.03;6213684;23;20024;-80
2022/06/14 11:42:21;;;;;;;8.38;3.00;;;;;;;27.79;28.64;100441.00;6213786;23;20023;-80
2022/06/14 11:45:05;;;;;;;5.63;2.65;;;;;;;27.51;29.46;100425.72;6213774;23;20008;-80
2022/06/14 11:47:36;;;;;;;4.85;2.45;;;;;;;27.75;28.78;100423.44;6213455;23;20096;-80
2022/06/14 11:50:14;;;;;;;6.18;2.78;;;;;;;27.74;29.64;100427.59;6187456;23;20013;-83
2022/06/14 11:52:47;;;;;;;4.93;2.70;;;;;;;27.36;29.78;100423.38;6187354;23;20019;-84
2022/06/14 11:55:28;;;;;;;5.18;2.60;;;;;;;27.10;28.92;100431.84;6186620;23;20017;-82
2022/06/14 11:58:06;;;;;;;8.20;2.65;;;;;;;26.88;31.23;100421.59;6213932;23;20020;-82
2022/06/14 12:00:47;;;;;;;5.57;2.95;;;;;;;26.86;31.26;100422.13;6186355;23;20013;-82
2022/06/14 12:03:30;;;;;;;4.78;2.90;;;;;;;26.97;27.97;100414.75;6213405;23;20020;-82
2022/06/14 12:06:09;;;;;;;5.60;2.50;;;;;;;27.31;29.32;100407.91;6186838;23;20017;-82
2022/06/14 12:09:02;;;;;;;4.53;2.60;;;;;;;27.47;28.38;100411.81;6211716;23;20347;-80
2022/06/14 12:11:34;;;;;;;5.60;2.53;;;;;;;27.20;28.17;100402.44;6212006;23;20012;-80
2022/06/14 12:14:00;;;;;;;;;;;;;;;27.26;28.79;100405.16;6185693;23;20039;-79
2022/06/14 12:16:45;;;;;;;5.97;2.60;;;;;;;27.43;30.16;100402.00;6213030;23;19918;-79
2022/06/14 12:19:18;;;;;;;4.68;2.60;;;;;;;27.69;30.04;100408.56;6185225;23;20076;-79
2022/06/14 12:21:44;;;;;;;4.60;2.80;;;;;;;27.80;31.03;100413.25;6184136;23;20404;-80